createdAt,value
2022-10-10T00:01:49.561Z,15.85
2022-10-10T00:04:18.771Z,17.27
2022-10-10T00:06:47.834Z,15.65
2022-10-10T00:09:17.121Z,19.05
2022-10-10T00:11:46.159Z,15.38
2022-10-10T00:14:15.609Z,14.23
2022-10-10T00:16:46.075Z,13.48
2022-10-10T00:19:15.633Z,19.33
2022-10-10T00:21:44.718Z,16.33
2022-10-10T00:24:13.932Z,16.05
2022-10-10T00:26:42.949Z,17.75
2022-10-10T00:29:12.170Z,16.27
2022-10-10T00:31:41.258Z,17.25
2022-10-10T00:34:12.975Z,17.05
2022-10-10T00:36:42.115Z,16.00
2022-10-10T00:39:11.423Z,17.83
2022-10-10T00:41:40.470Z,13.38
2022-10-10T00:44:11.844Z,12.82
2022-10-10T00:46:41.381Z,13.88
2022-10-10T00:49:16.377Z,13.25
2022-10-10T00:51:48.069Z,12.95
2022-10-10T00:54:19.472Z,12.93
2022-10-10T00:56:52.772Z,16.00
2022-10-10T00:59:23.065Z,12.27
2022-10-10T01:01:52.119Z,13.35
2022-10-10T01:04:35.095Z,13.80
2022-10-10T01:07:07.153Z,14.82
2022-10-10T01:09:38.789Z,13.30
2022-10-10T01:12:19.735Z,13.32
2022-10-10T01:14:55.101Z,9.98
2022-10-10T01:17:31.452Z,10.55
2022-10-10T01:20:38.037Z,21.25
2022-10-10T01:23:39.528Z,12.98
2022-10-10T01:26:35.834Z,12.13
2022-10-10T01:29:12.102Z,9.98
2022-10-10T01:31:45.117Z,13.27
2022-10-10T01:34:22.329Z,12.13
2022-10-10T01:36:59.704Z,10.65
2022-10-10T01:39:35.166Z,12.07
2022-10-10T01:42:10.762Z,11.68
2022-10-10T01:44:45.804Z,8.77
2022-10-10T01:47:15.435Z,9.82
2022-10-10T01:49:48.083Z,11.65
2022-10-10T01:52:26.252Z,14.98
2022-10-10T01:55:07.656Z,9.15
2022-10-10T01:57:47.795Z,15.43
2022-10-10T02:00:19.797Z,13.13
2022-10-10T02:02:55.142Z,11.98
2022-10-10T02:05:29.046Z,8.20
2022-10-10T02:08:04.650Z,9.55
2022-10-10T02:10:41.589Z,8.55
2022-10-10T02:13:14.211Z,20.50
2022-10-10T02:15:47.052Z,12.68
2022-10-10T02:18:21.077Z,10.15
2022-10-10T02:20:51.618Z,13.18
2022-10-10T02:23:22.965Z,11.55
2022-10-10T02:25:55.268Z,13.20
2022-10-10T02:28:31.338Z,14.40
2022-10-10T02:36:09.896Z,12.95
2022-10-10T02:38:40.572Z,12.73
2022-10-10T02:41:12.853Z,13.65
2022-10-10T02:43:42.443Z,19.58
2022-10-10T02:46:14.953Z,16.20
2022-10-10T02:48:44.859Z,14.60
2022-10-10T02:51:18.507Z,12.80
2022-10-10T02:53:47.570Z,9.20
2022-10-10T02:56:16.931Z,11.43
2022-10-10T02:58:46.044Z,13.98
2022-10-10T03:01:15.293Z,14.98
2022-10-10T03:03:44.420Z,17.02
2022-10-10T03:06:15.167Z,9.77
2022-10-10T03:08:44.107Z,20.25
2022-10-10T03:11:13.392Z,11.23
2022-10-10T03:13:42.566Z,10.50
2022-10-10T03:16:12.278Z,9.20
2022-10-10T03:18:41.419Z,12.65
2022-10-10T03:21:10.564Z,11.05
2022-10-10T03:23:41.255Z,11.30
2022-10-10T03:26:10.304Z,9.57
2022-10-10T03:28:39.832Z,9.13
2022-10-10T03:31:09.011Z,7.80
2022-10-10T03:33:38.215Z,9.27
2022-10-10T03:36:07.771Z,11.23
2022-10-10T03:38:36.981Z,10.45
2022-10-10T03:41:07.539Z,9.65
2022-10-10T03:43:36.715Z,10.85
2022-10-10T03:46:05.937Z,16.55
2022-10-10T03:48:35.310Z,14.35
2022-10-10T03:51:04.579Z,11.52
2022-10-10T03:53:33.917Z,11.95
2022-10-10T03:56:02.959Z,15.38
2022-10-10T03:58:33.642Z,16.35
2022-10-10T04:01:04.368Z,13.75
2022-10-10T04:03:34.085Z,12.60
2022-10-10T04:06:03.195Z,10.75
2022-10-10T04:08:32.670Z,12.57
2022-10-10T04:11:01.666Z,16.10
2022-10-10T04:13:32.334Z,11.35
2022-10-10T04:16:01.429Z,12.98
2022-10-10T04:18:31.080Z,13.07
2022-10-10T04:21:04.118Z,16.38
2022-10-10T04:23:33.642Z,14.95
2022-10-10T04:26:02.848Z,13.20
2022-10-10T04:28:33.719Z,13.77
2022-10-10T04:31:02.828Z,12.85
2022-10-10T04:33:32.199Z,14.02
2022-10-10T04:36:01.274Z,17.98
2022-10-10T04:38:30.573Z,17.98
2022-10-10T04:40:59.757Z,15.85
2022-10-10T04:43:29.481Z,16.00
2022-10-10T04:46:00.356Z,13.65
2022-10-10T04:48:29.629Z,15.70
2022-10-10T04:51:00.908Z,16.33
2022-10-10T04:53:30.182Z,21.15
2022-10-10T04:55:59.383Z,17.40
2022-10-10T04:58:28.859Z,18.77
2022-10-10T05:00:59.444Z,24.38
2022-10-10T05:03:28.868Z,15.40
2022-10-10T05:05:58.100Z,18.88
2022-10-10T05:08:27.588Z,18.63
2022-10-10T05:10:56.855Z,18.65
2022-10-10T05:13:26.269Z,19.27
2022-10-10T05:15:55.779Z,19.52
2022-10-10T05:18:26.406Z,17.92
2022-10-10T05:20:58.606Z,20.63
2022-10-10T05:23:30.518Z,22.10
2022-10-10T05:25:59.646Z,24.45
2022-10-10T05:28:28.873Z,17.73
2022-10-10T05:30:58.008Z,21.63
2022-10-10T05:33:28.898Z,23.83
2022-10-10T05:36:05.112Z,20.00
2022-10-10T05:38:35.051Z,22.80
2022-10-10T05:41:04.432Z,23.05
2022-10-10T05:43:33.717Z,25.40
2022-10-10T05:46:02.984Z,21.45
2022-10-10T05:48:33.737Z,25.02
2022-10-10T05:51:03.229Z,23.55
2022-10-10T05:53:32.467Z,29.27
2022-10-10T05:56:03.143Z,23.92
2022-10-10T05:58:32.381Z,27.90
2022-10-10T06:01:05.724Z,27.27
2022-10-10T06:03:37.152Z,22.80
2022-10-10T06:06:07.261Z,25.00
2022-10-10T06:08:36.976Z,23.95
2022-10-10T06:11:08.862Z,21.23
2022-10-10T06:13:39.135Z,31.02
2022-10-10T06:16:08.555Z,31.73
2022-10-10T06:18:39.286Z,32.50
2022-10-10T06:21:09.314Z,28.88
2022-10-10T06:23:38.762Z,24.85
2022-10-10T06:26:07.938Z,22.40
2022-10-10T06:28:37.360Z,26.88
2022-10-10T06:31:08.796Z,30.15
2022-10-10T06:33:41.065Z,25.90
2022-10-10T06:36:10.472Z,23.65
2022-10-10T06:38:40.727Z,27.52
2022-10-10T06:41:10.365Z,25.20
2022-10-10T06:43:41.275Z,30.58
2022-10-10T06:46:11.801Z,30.00
2022-10-10T06:48:43.191Z,32.08
2022-10-10T06:51:15.998Z,41.88
2022-10-10T06:53:46.286Z,31.52
2022-10-10T06:56:26.266Z,28.13
2022-10-10T06:58:56.862Z,29.85
2022-10-10T07:01:27.267Z,25.13
2022-10-10T07:03:58.154Z,24.40
2022-10-10T07:06:29.615Z,28.17
2022-10-10T07:09:01.848Z,22.77
2022-10-10T07:11:31.243Z,20.40
2022-10-10T07:14:00.775Z,21.23
2022-10-10T07:16:30.054Z,22.23
2022-10-10T07:19:00.669Z,23.95
2022-10-10T07:21:29.793Z,22.40
2022-10-10T07:23:59.086Z,27.58
2022-10-10T07:26:31.095Z,18.45
2022-10-10T07:29:00.353Z,17.70
2022-10-10T07:31:29.547Z,17.55
2022-10-10T07:34:00.167Z,17.10
2022-10-10T07:36:29.275Z,17.50
2022-10-10T07:38:58.608Z,16.77
2022-10-10T07:41:27.586Z,23.98
2022-10-10T07:43:57.673Z,19.42
2022-10-10T07:46:27.081Z,17.67
2022-10-10T07:48:57.483Z,21.83
2022-10-10T07:51:27.868Z,19.45
2022-10-10T07:53:57.275Z,17.55
2022-10-10T07:56:26.843Z,22.48
2022-10-10T07:58:56.134Z,17.55
2022-10-10T08:01:25.282Z,14.45
2022-10-10T08:03:56.311Z,17.63
2022-10-10T08:06:27.108Z,16.75
2022-10-10T08:08:56.362Z,18.55
2022-10-10T08:11:25.536Z,13.88
2022-10-10T08:13:54.731Z,18.98
2022-10-10T08:16:23.807Z,18.60
2022-10-10T08:18:53.408Z,14.68
2022-10-10T08:21:22.486Z,13.18
2022-10-10T08:23:53.215Z,16.15
2022-10-10T08:26:22.192Z,24.27
2022-10-10T08:28:51.531Z,23.23
2022-10-10T08:31:22.759Z,19.98
2022-10-10T08:33:52.948Z,20.20
2022-10-10T08:36:23.722Z,19.98
2022-10-10T08:39:01.016Z,15.88
2022-10-10T08:41:39.555Z,19.30
2022-10-10T08:44:17.793Z,16.38
2022-10-10T08:46:51.546Z,17.70
2022-10-10T08:49:26.431Z,14.07
2022-10-10T08:52:02.784Z,15.63
2022-10-10T08:54:35.892Z,15.73
2022-10-10T08:57:08.986Z,12.02
2022-10-10T08:59:42.176Z,14.30
2022-10-10T09:02:53.142Z,13.00
2022-10-10T09:05:35.901Z,11.57
2022-10-10T09:08:26.882Z,14.13
2022-10-10T09:11:03.496Z,15.90
2022-10-10T09:13:37.160Z,13.10
2022-10-10T09:16:14.577Z,13.80
2022-10-10T09:18:55.353Z,13.98
2022-10-10T09:21:28.931Z,9.35
2022-10-10T09:24:04.297Z,10.70
2022-10-10T09:26:39.861Z,13.38
2022-10-10T09:29:24.796Z,9.90
2022-10-10T09:31:58.507Z,8.13
2022-10-10T09:34:37.234Z,8.45
2022-10-10T09:37:16.474Z,10.13
2022-10-10T09:39:57.669Z,7.50
2022-10-10T09:42:36.562Z,6.00
2022-10-10T09:45:14.326Z,6.28
2022-10-10T09:47:43.757Z,7.18
2022-10-10T09:50:15.216Z,10.60
2022-10-10T09:52:45.458Z,10.43
2022-10-10T09:55:26.384Z,6.65
2022-10-10T09:58:04.033Z,5.63
2022-10-10T10:00:37.730Z,9.35
2022-10-10T10:03:13.743Z,5.13
2022-10-10T10:05:46.490Z,6.38
2022-10-10T10:08:27.896Z,6.43
2022-10-10T10:11:00.798Z,8.45
2022-10-10T10:13:34.768Z,5.30
2022-10-10T10:16:09.593Z,4.50
2022-10-10T10:18:43.507Z,8.57
2022-10-10T10:21:19.610Z,4.47
2022-10-10T10:23:58.208Z,4.25
2022-10-10T10:26:32.049Z,4.15
2022-10-10T10:29:02.587Z,6.72
2022-10-10T10:31:54.468Z,5.93
2022-10-10T10:34:53.296Z,4.65
2022-10-10T10:37:25.269Z,5.45
2022-10-10T10:40:10.421Z,4.85
2022-10-10T10:43:03.824Z,4.88
2022-10-10T10:45:46.239Z,3.80
2022-10-10T10:48:27.148Z,9.00
2022-10-10T10:51:03.753Z,5.72
2022-10-10T10:53:41.582Z,4.18
2022-10-10T10:56:21.036Z,3.70
2022-10-10T10:59:31.845Z,4.28
2022-10-10T11:02:01.102Z,3.38
2022-10-10T11:05:18.330Z,4.28
2022-10-10T11:08:02.357Z,3.15
2022-10-10T11:10:39.861Z,4.25
2022-10-10T11:13:19.245Z,5.38
2022-10-10T11:16:05.904Z,6.30
2022-10-10T11:18:47.154Z,4.13
2022-10-10T11:21:20.036Z,5.13
2022-10-10T11:23:56.249Z,3.92
2022-10-10T11:26:29.510Z,3.38
2022-10-10T11:29:04.186Z,8.95
2022-10-10T11:31:39.130Z,3.58
2022-10-10T11:34:14.404Z,5.43
2022-10-10T11:36:45.464Z,4.70
2022-10-10T11:39:19.117Z,3.95
2022-10-10T11:41:53.141Z,5.47
2022-10-10T11:44:29.380Z,4.60
2022-10-10T11:47:04.606Z,5.78
2022-10-10T11:49:41.701Z,5.13
2022-10-10T11:52:34.060Z,5.00
2022-10-10T11:55:11.553Z,4.18
2022-10-10T11:57:45.989Z,3.83
2022-10-10T12:00:18.005Z,3.80
2022-10-10T12:02:49.972Z,7.38
2022-10-10T12:05:26.087Z,2.97
2022-10-10T12:08:12.318Z,3.55
2022-10-10T12:10:50.874Z,7.53
2022-10-10T12:13:29.767Z,3.03
2022-10-10T12:16:04.027Z,3.63
2022-10-10T12:18:41.607Z,4.80
2022-10-10T12:21:14.936Z,5.50
2022-10-10T12:23:47.435Z,5.28
2022-10-10T12:26:18.482Z,3.67
2022-10-10T12:29:03.411Z,5.78
2022-10-10T12:31:37.711Z,3.80
2022-10-10T12:34:18.475Z,3.97
2022-10-10T12:37:22.385Z,7.45
2022-10-10T12:40:31.161Z,3.20
2022-10-10T12:43:21.412Z,4.93
2022-10-10T12:46:23.901Z,5.43
2022-10-10T12:49:21.208Z,3.65
2022-10-10T12:52:12.443Z,3.92
2022-10-10T12:54:45.875Z,4.47
2022-10-10T12:57:21.388Z,3.03
2022-10-10T12:59:50.691Z,7.28
2022-10-10T13:02:24.898Z,6.22
2022-10-10T13:04:58.410Z,3.38
2022-10-10T13:07:28.240Z,3.30
2022-10-10T13:10:11.571Z,5.07
2022-10-10T13:12:40.616Z,4.78
2022-10-10T13:15:21.063Z,3.95
2022-10-10T13:17:50.136Z,7.18
2022-10-10T13:20:31.797Z,4.43
2022-10-10T13:23:04.574Z,8.38
2022-10-10T13:25:38.993Z,4.45
2022-10-10T13:28:17.588Z,4.20
2022-10-10T13:30:47.860Z,6.25
2022-10-10T13:33:19.175Z,5.55
2022-10-10T13:35:50.630Z,5.80
2022-10-10T13:38:25.865Z,5.30
2022-10-10T13:40:56.891Z,4.50
2022-10-10T13:43:26.433Z,4.07
2022-10-10T13:46:00.509Z,5.68
2022-10-10T13:48:39.064Z,6.82
2022-10-10T13:51:10.979Z,3.65
2022-10-10T13:53:49.579Z,5.47
2022-10-10T13:56:28.598Z,3.50
2022-10-10T13:59:06.562Z,7.85
2022-10-10T14:01:39.110Z,4.93
2022-10-10T14:04:17.795Z,5.60
2022-10-10T14:06:56.344Z,5.57
2022-10-10T14:09:31.950Z,4.65
2022-10-10T14:12:04.487Z,4.82
2022-10-10T14:14:42.155Z,7.15
2022-10-10T14:17:12.704Z,7.85
2022-10-10T14:19:42.504Z,7.03
2022-10-10T14:22:11.522Z,6.80
2022-10-10T14:24:40.861Z,8.88
2022-10-10T14:27:17.484Z,6.10
2022-10-10T14:29:47.254Z,7.38
2022-10-10T14:32:16.932Z,7.40
2022-10-10T14:34:47.010Z,8.75
2022-10-10T14:37:20.527Z,8.88
2022-10-10T14:39:50.319Z,8.80
2022-10-10T14:42:22.036Z,6.32
2022-10-10T14:44:51.381Z,9.07
2022-10-10T14:47:22.453Z,6.15
2022-10-10T14:49:52.893Z,7.30
2022-10-10T14:52:21.872Z,7.75
2022-10-10T14:54:51.065Z,6.95
2022-10-10T14:57:22.479Z,10.15
2022-10-10T14:59:51.810Z,7.78
2022-10-10T15:02:22.839Z,9.20
2022-10-10T15:04:52.698Z,7.13
2022-10-10T15:07:21.869Z,8.85
2022-10-10T15:10:26.134Z,8.43
2022-10-10T15:12:44.777Z,8.48
2022-10-10T15:15:14.766Z,8.40
2022-10-10T15:17:44.073Z,12.13
2022-10-10T15:20:14.777Z,10.30
2022-10-10T15:22:46.068Z,12.10
2022-10-10T15:25:15.320Z,12.73
2022-10-10T15:27:45.703Z,22.73
2022-10-10T15:30:15.457Z,14.82
2022-10-10T15:32:44.601Z,27.77
2022-10-10T15:35:16.922Z,25.13
2022-10-10T15:37:47.178Z,13.40
2022-10-10T15:40:19.845Z,13.45
2022-10-10T15:42:52.082Z,16.55
2022-10-10T15:45:44.022Z,8.73
2022-10-10T15:48:10.790Z,14.55
2022-10-10T15:50:43.609Z,14.38
2022-10-10T15:53:13.433Z,20.88
2022-10-10T15:55:46.751Z,11.32
2022-10-10T15:58:17.806Z,15.20
2022-10-10T16:00:47.223Z,13.02
2022-10-10T16:03:18.321Z,14.65
2022-10-10T16:05:47.392Z,16.42
2022-10-10T16:08:16.497Z,12.52
2022-10-10T16:10:45.916Z,12.00
2022-10-10T16:13:16.345Z,11.80
2022-10-10T16:15:45.346Z,16.95
2022-10-10T16:18:14.613Z,15.68
2022-10-10T16:20:44.488Z,27.92
2022-10-10T16:23:13.706Z,31.35
2022-10-10T16:25:43.151Z,40.75
2022-10-10T16:28:12.832Z,71.05
2022-10-10T16:30:43.303Z,76.82
2022-10-10T16:33:13.673Z,44.65
2022-10-10T16:35:42.826Z,32.30
2022-10-10T16:38:12.075Z,21.30
2022-10-10T16:40:41.117Z,22.60
2022-10-10T16:43:11.115Z,15.48
2022-10-10T16:45:45.031Z,17.65
2022-10-10T16:48:14.628Z,211.27
2022-10-10T16:50:44.478Z,150.32
2022-10-10T16:53:13.738Z,103.45
2022-10-10T16:55:43.556Z,69.07
2022-10-10T16:58:12.956Z,63.17
2022-10-10T17:00:45.631Z,20.83
2022-10-10T17:03:15.217Z,17.60
2022-10-10T17:05:44.613Z,18.90
2022-10-10T17:08:14.095Z,23.92
2022-10-10T17:10:45.299Z,18.45
2022-10-10T17:13:14.597Z,21.67
2022-10-10T17:15:45.344Z,38.72
2022-10-10T17:18:17.357Z,36.67
2022-10-10T17:20:47.119Z,29.50
2022-10-10T17:23:17.404Z,18.60
2022-10-10T17:25:47.482Z,17.67
2022-10-10T17:28:17.603Z,18.23
2022-10-10T17:30:50.310Z,16.13
2022-10-10T17:33:21.680Z,12.57
2022-10-10T17:35:51.840Z,15.13
2022-10-10T17:38:39.173Z,16.10
2022-10-10T17:41:10.696Z,20.98
2022-10-10T17:43:40.187Z,17.55
2022-10-10T17:46:33.357Z,30.65
2022-10-10T17:49:02.351Z,31.92
2022-10-10T17:51:31.483Z,22.55
2022-10-10T17:54:01.421Z,30.63
2022-10-10T17:56:31.726Z,19.52
2022-10-10T17:59:02.048Z,15.77
2022-10-10T18:01:33.060Z,19.00
2022-10-10T18:04:02.609Z,18.25
2022-10-10T18:06:33.028Z,21.35
2022-10-10T18:09:02.731Z,20.60
2022-10-10T18:11:33.129Z,19.80
2022-10-10T18:14:02.266Z,22.77
2022-10-10T18:16:34.897Z,14.25
2022-10-10T18:19:05.624Z,18.08
2022-10-10T18:21:35.575Z,14.60
2022-10-10T18:24:04.908Z,20.10
2022-10-10T18:26:35.103Z,15.45
2022-10-10T18:29:05.034Z,19.15
2022-10-10T18:31:38.306Z,14.88
2022-10-10T18:34:08.871Z,19.65
2022-10-10T18:36:40.396Z,17.35
2022-10-10T18:39:13.326Z,17.52
2022-10-10T18:41:42.787Z,21.65
2022-10-10T18:44:14.710Z,17.42
2022-10-10T18:46:46.367Z,15.60
2022-10-10T18:49:15.924Z,16.00
2022-10-10T18:51:45.684Z,16.58
2022-10-10T18:54:17.569Z,16.75
2022-10-10T18:56:48.591Z,27.13
2022-10-10T18:59:20.033Z,26.35
2022-10-10T19:01:52.528Z,15.38
2022-10-10T19:04:23.489Z,19.17
2022-10-10T19:06:57.313Z,12.38
2022-10-10T19:09:27.123Z,11.48
2022-10-10T19:11:56.627Z,10.30
2022-10-10T19:14:25.871Z,11.90
2022-10-10T19:16:57.348Z,13.23
2022-10-10T19:19:27.264Z,10.18
2022-10-10T19:21:56.620Z,14.27
2022-10-10T19:24:25.835Z,8.88
2022-10-10T19:26:57.473Z,11.07
2022-10-10T19:29:28.234Z,8.95
2022-10-10T19:31:58.931Z,11.90
2022-10-10T19:34:28.213Z,10.05
2022-10-10T19:36:58.791Z,12.27
2022-10-10T19:39:27.838Z,13.13
2022-10-10T19:41:57.113Z,12.57
2022-10-10T19:44:26.290Z,12.10
2022-10-10T19:46:59.558Z,9.18
2022-10-10T19:49:28.759Z,14.93
2022-10-10T19:51:57.838Z,15.63
2022-10-10T19:54:27.058Z,14.88
2022-10-10T19:56:56.370Z,19.38
2022-10-10T19:59:25.403Z,24.17
2022-10-10T20:01:54.598Z,53.40
2022-10-10T20:04:25.291Z,31.40
2022-10-10T20:06:54.472Z,26.02
2022-10-10T20:09:25.480Z,36.63
2022-10-10T20:11:55.139Z,11.90
2022-10-10T20:14:24.213Z,14.40
2022-10-10T20:16:53.923Z,17.02
2022-10-10T20:19:24.972Z,9.95
2022-10-10T20:21:54.114Z,14.07
2022-10-10T20:24:23.464Z,12.38
2022-10-10T20:26:54.491Z,12.48
2022-10-10T20:29:23.739Z,12.90
2022-10-10T20:31:53.928Z,13.40
2022-10-10T20:34:24.399Z,8.52
2022-10-10T20:36:53.859Z,12.75
2022-10-10T20:39:22.858Z,7.00
2022-10-10T20:41:52.118Z,9.60
2022-10-10T20:44:21.313Z,18.40
2022-10-10T20:46:50.324Z,23.30
2022-10-10T20:49:21.219Z,22.67
2022-10-10T20:51:52.115Z,10.95
2022-10-10T20:54:23.333Z,16.77
2022-10-10T20:56:52.973Z,10.45
2022-10-10T20:59:24.526Z,10.35
2022-10-10T21:01:53.941Z,9.35
2022-10-10T21:04:23.019Z,10.85
2022-10-10T21:06:53.456Z,8.65
2022-10-10T21:09:22.696Z,9.55
2022-10-10T21:11:52.041Z,15.93
2022-10-10T21:14:21.256Z,18.42
2022-10-10T21:16:51.375Z,20.10
2022-10-10T21:19:20.468Z,15.95
2022-10-10T21:21:49.663Z,17.58
2022-10-10T21:24:20.198Z,26.27
2022-10-10T21:26:50.768Z,29.35
2022-10-10T21:29:19.851Z,29.80
2022-10-10T21:31:49.085Z,23.38
2022-10-10T21:34:19.064Z,22.45
2022-10-10T21:36:48.844Z,55.67
2022-10-10T21:39:19.250Z,39.00
2022-10-10T21:41:48.539Z,68.40
2022-10-10T21:44:17.600Z,78.63
2022-10-10T21:46:46.667Z,20.85
2022-10-10T21:49:16.049Z,17.55
2022-10-10T21:51:46.535Z,44.83
2022-10-10T21:54:16.140Z,14.18
2022-10-10T21:56:46.799Z,9.75
2022-10-10T21:59:15.846Z,14.45
2022-10-10T22:01:45.003Z,9.70
2022-10-10T22:04:14.200Z,14.68
2022-10-10T22:06:44.701Z,12.13
2022-10-10T22:09:13.780Z,13.50
2022-10-10T22:11:43.082Z,7.60
2022-10-10T22:14:13.471Z,9.50
2022-10-10T22:16:42.536Z,10.27
2022-10-10T22:19:11.901Z,13.80
2022-10-10T22:21:41.035Z,10.38
2022-10-10T22:24:10.313Z,9.82
2022-10-10T22:26:39.708Z,9.95
2022-10-10T22:29:08.796Z,7.05
2022-10-10T22:31:39.236Z,7.40
2022-10-10T22:34:08.536Z,8.82
2022-10-10T22:36:37.567Z,11.05
2022-10-10T22:39:09.006Z,10.02
2022-10-10T22:41:38.159Z,8.75
2022-10-10T22:44:07.603Z,10.55
2022-10-10T22:46:37.962Z,8.95
2022-10-10T22:49:07.313Z,12.00
2022-10-10T22:51:36.271Z,9.00
2022-10-10T22:54:05.413Z,8.35
2022-10-10T22:56:34.764Z,8.85
2022-10-10T22:59:03.778Z,8.55
2022-10-10T23:01:32.950Z,10.10
2022-10-10T23:04:10.299Z,11.43
2022-10-10T23:06:39.490Z,9.18
2022-10-10T23:09:09.519Z,9.85
2022-10-10T23:11:38.496Z,10.32
2022-10-10T23:14:07.815Z,11.50
2022-10-10T23:16:40.600Z,10.07
2022-10-10T23:19:11.382Z,11.30
2022-10-10T23:21:40.782Z,9.77
2022-10-10T23:24:10.231Z,11.55
2022-10-10T23:26:39.272Z,12.90
2022-10-10T23:29:09.377Z,11.10
2022-10-10T23:31:38.341Z,8.07
2022-10-10T23:34:07.557Z,9.82
2022-10-10T23:36:38.279Z,13.50
2022-10-10T23:39:09.898Z,10.48
2022-10-10T23:41:39.547Z,12.20
2022-10-10T23:44:08.669Z,10.60
2022-10-10T23:46:37.807Z,9.50
2022-10-10T23:49:07.231Z,9.85
2022-10-10T23:51:37.688Z,8.98
2022-10-10T23:54:06.799Z,9.75
2022-10-10T23:56:36.069Z,10.32
2022-10-10T23:59:05.100Z,11.68
